sensor_id;sensor_type;location;lat;lon;timestamp;P1;durP1;ratioP1;P2;durP2;ratioP2
751;SDS011;360;48.764;9.164;2023-02-20T00:02:15;1.30;;;1.00;;
751;SDS011;360;48.764;9.164;2023-02-20T00:04:42;4.73;;;2.07;;
751;SDS011;360;48.764;9.164;2023-02-20T00:07:09;1.80;;;1.43;;
751;SDS011;360;48.764;9.164;2023-02-20T00:09:36;1.80;;;1.20;;
751;SDS011;360;48.764;9.164;2023-02-20T00:12:05;1.70;;;1.33;;
751;SDS011;360;48.764;9.164;2023-02-20T00:14:32;2.87;;;1.33;;
751;SDS011;360;48.764;9.164;2023-02-20T00:16:59;2.00;;;1.20;;
751;SDS011;360;48.764;9.164;2023-02-20T00:19:27;2.90;;;1.47;;
751;SDS011;360;48.764;9.164;2023-02-20T00:21:54;4.53;;;2.37;;
751;SDS011;360;48.764;9.164;2023-02-20T00:24:21;4.30;;;2.03;;
751;SDS011;360;48.764;9.164;2023-02-20T00:26:49;2.40;;;1.03;;
751;SDS011;360;48.764;9.164;2023-02-20T00:29:17;1.43;;;1.23;;
751;SDS011;360;48.764;9.164;2023-02-20T00:31:48;4.67;;;1.43;;
751;SDS011;360;48.764;9.164;2023-02-20T00:34:16;3.40;;;1.57;;
751;SDS011;360;48.764;9.164;2023-02-20T00:36:44;2.13;;;1.57;;
751;SDS011;360;48.764;9.164;2023-02-20T00:39:12;4.10;;;1.53;;
751;SDS011;360;48.764;9.164;2023-02-20T00:41:39;2.47;;;1.30;;
751;SDS011;360;48.764;9.164;2023-02-20T00:44:06;2.37;;;1.97;;
751;SDS011;360;48.764;9.164;2023-02-20T00:46:34;3.10;;;1.53;;
751;SDS011;360;48.764;9.164;2023-02-20T00:49:01;4.20;;;2.83;;
751;SDS011;360;48.764;9.164;2023-02-20T00:51:28;4.07;;;1.50;;
751;SDS011;360;48.764;9.164;2023-02-20T00:53:58;5.23;;;1.57;;
751;SDS011;360;48.764;9.164;2023-02-20T00:56:25;4.83;;;1.70;;
751;SDS011;360;48.764;9.164;2023-02-20T00:58:53;1.50;;;1.20;;
751;SDS011;360;48.764;9.164;2023-02-20T01:01:20;3.33;;;1.53;;
751;SDS011;360;48.764;9.164;2023-02-20T01:03:47;2.50;;;1.50;;
751;SDS011;360;48.764;9.164;2023-02-20T01:06:14;5.53;;;2.97;;
751;SDS011;360;48.764;9.164;2023-02-20T01:08:41;3.07;;;1.60;;
751;SDS011;360;48.764;9.164;2023-02-20T01:11:10;2.20;;;1.57;;
751;SDS011;360;48.764;9.164;2023-02-20T01:13:37;2.70;;;1.47;;
751;SDS011;360;48.764;9.164;2023-02-20T01:16:04;3.63;;;1.50;;
751;SDS011;360;48.764;9.164;2023-02-20T01:18:31;2.50;;;1.20;;
751;SDS011;360;48.764;9.164;2023-02-20T01:20:58;6.47;;;1.90;;
751;SDS011;360;48.764;9.164;2023-02-20T01:23:25;1.93;;;1.50;;
751;SDS011;360;48.764;9.164;2023-02-20T01:25:52;3.97;;;1.83;;
751;SDS011;360;48.764;9.164;2023-02-20T01:28:21;2.37;;;1.60;;
751;SDS011;360;48.764;9.164;2023-02-20T01:30:48;3.30;;;2.03;;
751;SDS011;360;48.764;9.164;2023-02-20T01:33:15;3.03;;;1.77;;
751;SDS011;360;48.764;9.164;2023-02-20T01:35:42;5.30;;;1.50;;
751;SDS011;360;48.764;9.164;2023-02-20T01:38:09;4.67;;;1.63;;
751;SDS011;360;48.764;9.164;2023-02-20T01:40:36;2.17;;;1.60;;
751;SDS011;360;48.764;9.164;2023-02-20T01:43:03;3.10;;;1.60;;
751;SDS011;360;48.764;9.164;2023-02-20T01:45:33;2.00;;;1.50;;
751;SDS011;360;48.764;9.164;2023-02-20T01:48:00;2.00;;;1.13;;
751;SDS011;360;48.764;9.164;2023-02-20T01:50:29;2.50;;;1.73;;
751;SDS011;360;48.764;9.164;2023-02-20T01:52:58;3.47;;;1.87;;
751;SDS011;360;48.764;9.164;2023-02-20T01:55:26;2.37;;;1.90;;
751;SDS011;360;48.764;9.164;2023-02-20T01:57:56;1.47;;;1.10;;
751;SDS011;360;48.764;9.164;2023-02-20T02:00:25;6.27;;;1.90;;
751;SDS011;360;48.764;9.164;2023-02-20T02:02:55;4.77;;;1.70;;
751;SDS011;360;48.764;9.164;2023-02-20T02:05:23;2.47;;;1.47;;
751;SDS011;360;48.764;9.164;2023-02-20T02:07:50;2.40;;;1.80;;
751;SDS011;360;48.764;9.164;2023-02-20T02:10:19;4.43;;;1.80;;
751;SDS011;360;48.764;9.164;2023-02-20T02:12:50;8.80;;;1.80;;
751;SDS011;360;48.764;9.164;2023-02-20T02:15:19;2.60;;;1.10;;
751;SDS011;360;48.764;9.164;2023-02-20T02:23:36;2.70;;;1.30;;
751;SDS011;360;48.764;9.164;2023-02-20T02:26:15;3.13;;;1.40;;
751;SDS011;360;48.764;9.164;2023-02-20T02:31:58;2.80;;;1.33;;
751;SDS011;360;48.764;9.164;2023-02-20T02:37:16;4.60;;;1.87;;
751;SDS011;360;48.764;9.164;2023-02-20T02:39:46;2.50;;;1.60;;
751;SDS011;360;48.764;9.164;2023-02-20T02:42:16;3.13;;;1.30;;
751;SDS011;360;48.764;9.164;2023-02-20T02:44:47;1.53;;;1.23;;
751;SDS011;360;48.764;9.164;2023-02-20T02:47:20;3.20;;;1.57;;
751;SDS011;360;48.764;9.164;2023-02-20T02:49:49;1.53;;;1.13;;
751;SDS011;360;48.764;9.164;2023-02-20T02:52:18;2.00;;;1.20;;
751;SDS011;360;48.764;9.164;2023-02-20T02:55:00;1.47;;;1.07;;
751;SDS011;360;48.764;9.164;2023-02-20T02:57:28;1.63;;;1.37;;
751;SDS011;360;48.764;9.164;2023-02-20T02:59:58;2.30;;;1.53;;
751;SDS011;360;48.764;9.164;2023-02-20T03:02:27;1.80;;;1.13;;
751;SDS011;360;48.764;9.164;2023-02-20T03:04:55;8.20;;;1.60;;
751;SDS011;360;48.764;9.164;2023-02-20T03:07:25;1.97;;;1.60;;
751;SDS011;360;48.764;9.164;2023-02-20T03:09:53;3.20;;;1.23;;
751;SDS011;360;48.764;9.164;2023-02-20T03:12:22;2.30;;;1.53;;
751;SDS011;360;48.764;9.164;2023-02-20T03:14:53;1.17;;;1.07;;
751;SDS011;360;48.764;9.164;2023-02-20T03:17:41;3.30;;;1.57;;
751;SDS011;360;48.764;9.164;2023-02-20T03:20:09;1.40;;;1.10;;
751;SDS011;360;48.764;9.164;2023-02-20T03:22:40;2.23;;;1.63;;
751;SDS011;360;48.764;9.164;2023-02-20T03:25:09;4.93;;;1.93;;
751;SDS011;360;48.764;9.164;2023-02-20T03:27:39;2.63;;;0.90;;
751;SDS011;360;48.764;9.164;2023-02-20T03:30:09;1.87;;;1.43;;
751;SDS011;360;48.764;9.164;2023-02-20T03:32:38;2.30;;;1.70;;
751;SDS011;360;48.764;9.164;2023-02-20T03:35:23;1.63;;;1.23;;
751;SDS011;360;48.764;9.164;2023-02-20T03:38:10;2.30;;;1.50;;
751;SDS011;360;48.764;9.164;2023-02-20T03:40:57;2.07;;;1.50;;
751;SDS011;360;48.764;9.164;2023-02-20T03:43:43;4.63;;;1.60;;
751;SDS011;360;48.764;9.164;2023-02-20T03:46:12;1.50;;;1.27;;
751;SDS011;360;48.764;9.164;2023-02-20T03:48:41;2.60;;;1.80;;
751;SDS011;360;48.764;9.164;2023-02-20T03:51:08;4.70;;;1.33;;
751;SDS011;360;48.764;9.164;2023-02-20T03:53:40;2.60;;;1.60;;
751;SDS011;360;48.764;9.164;2023-02-20T03:56:09;3.27;;;1.37;;
751;SDS011;360;48.764;9.164;2023-02-20T03:58:38;1.50;;;1.40;;
751;SDS011;360;48.764;9.164;2023-02-20T04:01:06;3.30;;;2.30;;
751;SDS011;360;48.764;9.164;2023-02-20T04:03:35;2.67;;;1.60;;
751;SDS011;360;48.764;9.164;2023-02-20T04:06:04;4.07;;;1.50;;
751;SDS011;360;48.764;9.164;2023-02-20T04:08:34;4.03;;;1.10;;
751;SDS011;360;48.764;9.164;2023-02-20T04:11:04;3.57;;;1.60;;
751;SDS011;360;48.764;9.164;2023-02-20T04:13:32;2.60;;;1.70;;
751;SDS011;360;48.764;9.164;2023-02-20T04:16:00;2.30;;;1.50;;
751;SDS011;360;48.764;9.164;2023-02-20T04:18:27;1.93;;;1.50;;
751;SDS011;360;48.764;9.164;2023-02-20T04:20:55;2.30;;;1.40;;
751;SDS011;360;48.764;9.164;2023-02-20T04:23:24;1.93;;;1.37;;
751;SDS011;360;48.764;9.164;2023-02-20T04:25:52;3.50;;;1.70;;
751;SDS011;360;48.764;9.164;2023-02-20T04:28:23;3.47;;;2.07;;
751;SDS011;360;48.764;9.164;2023-02-20T04:30:50;4.77;;;1.37;;
751;SDS011;360;48.764;9.164;2023-02-20T04:33:18;3.07;;;1.63;;
751;SDS011;360;48.764;9.164;2023-02-20T04:35:45;1.43;;;1.33;;
751;SDS011;360;48.764;9.164;2023-02-20T04:38:12;4.37;;;1.60;;
751;SDS011;360;48.764;9.164;2023-02-20T04:40:39;4.10;;;2.10;;
751;SDS011;360;48.764;9.164;2023-02-20T04:43:06;3.37;;;1.27;;
751;SDS011;360;48.764;9.164;2023-02-20T04:45:36;1.40;;;0.87;;
751;SDS011;360;48.764;9.164;2023-02-20T04:48:03;3.60;;;1.80;;
751;SDS011;360;48.764;9.164;2023-02-20T04:50:31;6.33;;;2.20;;
751;SDS011;360;48.764;9.164;2023-02-20T04:52:58;2.70;;;1.73;;
751;SDS011;360;48.764;9.164;2023-02-20T04:55:25;2.03;;;1.30;;
751;SDS011;360;48.764;9.164;2023-02-20T04:57:53;4.97;;;1.70;;
751;SDS011;360;48.764;9.164;2023-02-20T05:00:22;1.70;;;1.60;;
751;SDS011;360;48.764;9.164;2023-02-20T05:02:51;1.77;;;1.37;;
751;SDS011;360;48.764;9.164;2023-02-20T05:05:19;5.10;;;1.80;;
751;SDS011;360;48.764;9.164;2023-02-20T05:07:46;1.73;;;1.30;;
751;SDS011;360;48.764;9.164;2023-02-20T05:10:14;3.00;;;1.90;;
751;SDS011;360;48.764;9.164;2023-02-20T05:12:41;3.80;;;1.17;;
751;SDS011;360;48.764;9.164;2023-02-20T05:15:08;4.53;;;2.50;;
751;SDS011;360;48.764;9.164;2023-02-20T05:17:35;1.77;;;1.43;;
751;SDS011;360;48.764;9.164;2023-02-20T05:20:04;2.83;;;1.40;;
751;SDS011;360;48.764;9.164;2023-02-20T05:22:32;1.63;;;1.50;;
751;SDS011;360;48.764;9.164;2023-02-20T05:24:58;2.67;;;1.77;;
751;SDS011;360;48.764;9.164;2023-02-20T05:27:26;3.30;;;2.03;;
751;SDS011;360;48.764;9.164;2023-02-20T05:29:53;3.90;;;1.93;;
751;SDS011;360;48.764;9.164;2023-02-20T05:32:21;2.47;;;2.00;;
751;SDS011;360;48.764;9.164;2023-02-20T05:34:48;2.53;;;1.77;;
751;SDS011;360;48.764;9.164;2023-02-20T05:37:17;3.70;;;2.27;;
751;SDS011;360;48.764;9.164;2023-02-20T05:39:44;2.97;;;2.67;;
751;SDS011;360;48.764;9.164;2023-02-20T05:42:12;1.73;;;1.30;;
751;SDS011;360;48.764;9.164;2023-02-20T05:44:40;10.00;;;2.67;;
751;SDS011;360;48.764;9.164;2023-02-20T05:47:07;8.53;;;1.67;;
751;SDS011;360;48.764;9.164;2023-02-20T05:49:34;2.00;;;1.70;;
751;SDS011;360;48.764;9.164;2023-02-20T05:52:02;6.33;;;1.90;;
751;SDS011;360;48.764;9.164;2023-02-20T05:54:35;2.50;;;1.30;;
751;SDS011;360;48.764;9.164;2023-02-20T05:57:02;2.67;;;1.87;;
751;SDS011;360;48.764;9.164;2023-02-20T05:59:29;2.93;;;1.77;;
751;SDS011;360;48.764;9.164;2023-02-20T06:01:57;3.50;;;2.13;;
751;SDS011;360;48.764;9.164;2023-02-20T06:04:24;2.17;;;1.33;;
751;SDS011;360;48.764;9.164;2023-02-20T06:06:52;2.27;;;1.97;;
751;SDS011;360;48.764;9.164;2023-02-20T06:09:19;4.33;;;2.07;;
751;SDS011;360;48.764;9.164;2023-02-20T06:11:51;2.23;;;2.03;;
751;SDS011;360;48.764;9.164;2023-02-20T06:14:19;2.67;;;1.67;;
751;SDS011;360;48.764;9.164;2023-02-20T06:16:46;3.50;;;1.63;;
751;SDS011;360;48.764;9.164;2023-02-20T06:19:16;2.80;;;2.13;;
751;SDS011;360;48.764;9.164;2023-02-20T06:21:44;3.37;;;1.87;;
751;SDS011;360;48.764;9.164;2023-02-20T06:24:11;6.00;;;1.77;;
751;SDS011;360;48.764;9.164;2023-02-20T06:26:38;1.93;;;1.67;;
751;SDS011;360;48.764;9.164;2023-02-20T06:29:07;2.77;;;1.60;;
751;SDS011;360;48.764;9.164;2023-02-20T06:31:34;3.87;;;2.27;;
751;SDS011;360;48.764;9.164;2023-02-20T06:34:01;3.33;;;1.97;;
751;SDS011;360;48.764;9.164;2023-02-20T06:36:29;3.47;;;2.33;;
751;SDS011;360;48.764;9.164;2023-02-20T06:38:57;3.30;;;1.80;;
751;SDS011;360;48.764;9.164;2023-02-20T06:41:24;4.20;;;1.60;;
751;SDS011;360;48.764;9.164;2023-02-20T06:43:52;2.53;;;1.80;;
751;SDS011;360;48.764;9.164;2023-02-20T06:46:21;4.80;;;2.53;;
751;SDS011;360;48.764;9.164;2023-02-20T06:48:49;4.77;;;2.27;;
751;SDS011;360;48.764;9.164;2023-02-20T06:51:16;5.00;;;2.70;;
751;SDS011;360;48.764;9.164;2023-02-20T06:53:44;9.33;;;2.37;;
751;SDS011;360;48.764;9.164;2023-02-20T06:56:13;3.60;;;2.00;;
751;SDS011;360;48.764;9.164;2023-02-20T06:58:42;3.10;;;1.70;;
751;SDS011;360;48.764;9.164;2023-02-20T07:01:09;2.87;;;1.50;;
751;SDS011;360;48.764;9.164;2023-02-20T07:03:38;5.23;;;2.07;;
751;SDS011;360;48.764;9.164;2023-02-20T07:06:05;1.97;;;1.50;;
751;SDS011;360;48.764;9.164;2023-02-20T07:08:32;3.17;;;1.70;;
751;SDS011;360;48.764;9.164;2023-02-20T07:11:00;11.23;;;3.00;;
751;SDS011;360;48.764;9.164;2023-02-20T07:13:27;3.20;;;1.80;;
751;SDS011;360;48.764;9.164;2023-02-20T07:15:54;2.70;;;1.97;;
751;SDS011;360;48.764;9.164;2023-02-20T07:18:21;4.70;;;2.60;;
751;SDS011;360;48.764;9.164;2023-02-20T07:20:50;3.97;;;2.63;;
751;SDS011;360;48.764;9.164;2023-02-20T07:23:17;3.07;;;2.57;;
751;SDS011;360;48.764;9.164;2023-02-20T07:25:44;2.50;;;2.30;;
751;SDS011;360;48.764;9.164;2023-02-20T07:28:12;3.60;;;2.20;;
751;SDS011;360;48.764;9.164;2023-02-20T07:30:39;3.97;;;2.40;;
751;SDS011;360;48.764;9.164;2023-02-20T07:33:06;6.10;;;2.43;;
751;SDS011;360;48.764;9.164;2023-02-20T07:35:33;3.03;;;2.23;;
751;SDS011;360;48.764;9.164;2023-02-20T07:38:01;4.40;;;2.10;;
751;SDS011;360;48.764;9.164;2023-02-20T07:40:28;4.00;;;2.00;;
751;SDS011;360;48.764;9.164;2023-02-20T07:42:55;3.87;;;2.00;;
751;SDS011;360;48.764;9.164;2023-02-20T07:45:23;2.70;;;1.80;;
751;SDS011;360;48.764;9.164;2023-02-20T07:47:50;4.50;;;2.43;;
751;SDS011;360;48.764;9.164;2023-02-20T07:50:17;3.33;;;2.70;;
751;SDS011;360;48.764;9.164;2023-02-20T07:52:44;4.30;;;3.17;;
751;SDS011;360;48.764;9.164;2023-02-20T07:55:14;6.00;;;1.70;;
751;SDS011;360;48.764;9.164;2023-02-20T07:57:41;3.80;;;2.10;;
751;SDS011;360;48.764;9.164;2023-02-20T08:00:12;5.10;;;2.20;;
751;SDS011;360;48.764;9.164;2023-02-20T08:02:40;2.77;;;1.90;;
751;SDS011;360;48.764;9.164;2023-02-20T08:05:07;3.50;;;2.77;;
751;SDS011;360;48.764;9.164;2023-02-20T08:07:34;4.07;;;2.20;;
751;SDS011;360;48.764;9.164;2023-02-20T08:10:01;3.00;;;1.93;;
751;SDS011;360;48.764;9.164;2023-02-20T08:12:30;4.40;;;2.00;;
751;SDS011;360;48.764;9.164;2023-02-20T08:14:57;3.30;;;2.10;;
751;SDS011;360;48.764;9.164;2023-02-20T08:17:24;4.50;;;2.23;;
751;SDS011;360;48.764;9.164;2023-02-20T08:19:51;2.90;;;2.03;;
751;SDS011;360;48.764;9.164;2023-02-20T08:22:18;2.67;;;1.60;;
751;SDS011;360;48.764;9.164;2023-02-20T08:24:45;3.23;;;1.77;;
751;SDS011;360;48.764;9.164;2023-02-20T08:27:12;2.27;;;1.83;;
751;SDS011;360;48.764;9.164;2023-02-20T08:29:41;8.10;;;2.67;;
751;SDS011;360;48.764;9.164;2023-02-20T08:32:08;4.03;;;2.47;;
751;SDS011;360;48.764;9.164;2023-02-20T08:34:35;1.50;;;1.40;;
751;SDS011;360;48.764;9.164;2023-02-20T08:37:02;2.13;;;1.33;;
751;SDS011;360;48.764;9.164;2023-02-20T08:39:30;2.47;;;2.03;;
751;SDS011;360;48.764;9.164;2023-02-20T08:41:57;1.60;;;1.37;;
751;SDS011;360;48.764;9.164;2023-02-20T08:44:24;3.43;;;1.93;;
751;SDS011;360;48.764;9.164;2023-02-20T08:46:52;2.57;;;1.50;;
751;SDS011;360;48.764;9.164;2023-02-20T08:49:19;1.80;;;1.37;;
751;SDS011;360;48.764;9.164;2023-02-20T08:51:47;2.30;;;1.43;;
751;SDS011;360;48.764;9.164;2023-02-20T08:54:14;2.43;;;1.50;;
751;SDS011;360;48.764;9.164;2023-02-20T08:56:41;1.40;;;1.20;;
751;SDS011;360;48.764;9.164;2023-02-20T08:59:09;2.40;;;1.77;;
751;SDS011;360;48.764;9.164;2023-02-20T09:01:36;5.40;;;1.43;;
751;SDS011;360;48.764;9.164;2023-02-20T09:04:07;2.10;;;1.37;;
751;SDS011;360;48.764;9.164;2023-02-20T09:06:35;1.20;;;1.10;;
751;SDS011;360;48.764;9.164;2023-02-20T09:09:02;4.00;;;1.43;;
751;SDS011;360;48.764;9.164;2023-02-20T09:11:29;5.20;;;1.80;;
751;SDS011;360;48.764;9.164;2023-02-20T09:13:56;1.97;;;1.03;;
751;SDS011;360;48.764;9.164;2023-02-20T09:16:23;1.37;;;1.00;;
751;SDS011;360;48.764;9.164;2023-02-20T09:18:52;1.73;;;1.60;;
751;SDS011;360;48.764;9.164;2023-02-20T09:21:21;3.90;;;2.20;;
751;SDS011;360;48.764;9.164;2023-02-20T09:23:48;2.43;;;1.40;;
751;SDS011;360;48.764;9.164;2023-02-20T09:26:15;3.97;;;2.07;;
751;SDS011;360;48.764;9.164;2023-02-20T09:28:42;1.70;;;1.33;;
751;SDS011;360;48.764;9.164;2023-02-20T09:31:10;1.30;;;1.20;;
751;SDS011;360;48.764;9.164;2023-02-20T09:33:37;3.30;;;1.43;;
751;SDS011;360;48.764;9.164;2023-02-20T09:36:04;2.90;;;1.30;;
751;SDS011;360;48.764;9.164;2023-02-20T09:38:33;1.87;;;1.50;;
751;SDS011;360;48.764;9.164;2023-02-20T09:41:00;1.93;;;1.20;;
751;SDS011;360;48.764;9.164;2023-02-20T09:43:30;2.00;;;1.17;;
751;SDS011;360;48.764;9.164;2023-02-20T09:46:10;1.80;;;1.23;;
751;SDS011;360;48.764;9.164;2023-02-20T09:48:42;3.10;;;1.50;;
751;SDS011;360;48.764;9.164;2023-02-20T09:51:11;1.60;;;0.97;;
751;SDS011;360;48.764;9.164;2023-02-20T09:53:43;1.00;;;0.83;;
751;SDS011;360;48.764;9.164;2023-02-20T09:56:16;1.50;;;1.40;;
751;SDS011;360;48.764;9.164;2023-02-20T09:58:45;3.73;;;1.40;;
751;SDS011;360;48.764;9.164;2023-02-20T10:01:15;1.60;;;1.13;;
751;SDS011;360;48.764;9.164;2023-02-20T10:03:47;2.30;;;1.30;;
751;SDS011;360;48.764;9.164;2023-02-20T10:06:18;3.87;;;1.17;;
751;SDS011;360;48.764;9.164;2023-02-20T10:08:47;3.83;;;1.47;;
751;SDS011;360;48.764;9.164;2023-02-20T10:11:17;1.90;;;1.50;;
751;SDS011;360;48.764;9.164;2023-02-20T10:13:50;2.23;;;1.70;;
751;SDS011;360;48.764;9.164;2023-02-20T10:16:29;1.87;;;0.70;;
751;SDS011;360;48.764;9.164;2023-02-20T10:19:01;1.40;;;1.07;;
751;SDS011;360;48.764;9.164;2023-02-20T10:21:33;1.30;;;0.97;;
751;SDS011;360;48.764;9.164;2023-02-20T10:24:05;1.67;;;1.07;;
751;SDS011;360;48.764;9.164;2023-02-20T10:26:41;1.80;;;1.27;;
751;SDS011;360;48.764;9.164;2023-02-20T10:29:13;4.60;;;0.90;;
751;SDS011;360;48.764;9.164;2023-02-20T10:31:42;1.97;;;1.10;;
751;SDS011;360;48.764;9.164;2023-02-20T10:34:11;3.70;;;1.30;;
751;SDS011;360;48.764;9.164;2023-02-20T10:36:41;3.53;;;1.53;;
751;SDS011;360;48.764;9.164;2023-02-20T10:39:12;2.33;;;1.53;;
751;SDS011;360;48.764;9.164;2023-02-20T10:41:41;2.40;;;1.13;;
751;SDS011;360;48.764;9.164;2023-02-20T10:44:10;5.33;;;1.03;;
751;SDS011;360;48.764;9.164;2023-02-20T10:46:43;1.10;;;1.00;;
751;SDS011;360;48.764;9.164;2023-02-20T10:49:13;1.20;;;0.83;;
751;SDS011;360;48.764;9.164;2023-02-20T10:51:42;5.70;;;1.23;;
751;SDS011;360;48.764;9.164;2023-02-20T10:54:13;1.70;;;1.23;;
751;SDS011;360;48.764;9.164;2023-02-20T10:56:44;1.27;;;1.10;;
751;SDS011;360;48.764;9.164;2023-02-20T10:59:15;2.37;;;1.40;;
751;SDS011;360;48.764;9.164;2023-02-20T11:01:45;4.50;;;1.57;;
751;SDS011;360;48.764;9.164;2023-02-20T11:04:14;1.30;;;0.90;;
751;SDS011;360;48.764;9.164;2023-02-20T11:06:44;1.87;;;1.10;;
751;SDS011;360;48.764;9.164;2023-02-20T11:09:13;3.20;;;1.40;;
751;SDS011;360;48.764;9.164;2023-02-20T11:11:42;2.23;;;0.73;;
751;SDS011;360;48.764;9.164;2023-02-20T11:14:10;2.20;;;1.10;;
751;SDS011;360;48.764;9.164;2023-02-20T11:16:39;1.07;;;0.90;;
751;SDS011;360;48.764;9.164;2023-02-20T11:19:09;1.20;;;1.00;;
751;SDS011;360;48.764;9.164;2023-02-20T11:21:39;1.63;;;1.00;;
751;SDS011;360;48.764;9.164;2023-02-20T11:24:25;1.37;;;0.93;;
751;SDS011;360;48.764;9.164;2023-02-20T11:27:06;0.80;;;0.77;;
751;SDS011;360;48.764;9.164;2023-02-20T11:29:39;2.87;;;1.13;;
751;SDS011;360;48.764;9.164;2023-02-20T11:32:16;0.90;;;0.60;;
751;SDS011;360;48.764;9.164;2023-02-20T11:34:43;1.47;;;1.07;;
751;SDS011;360;48.764;9.164;2023-02-20T11:37:10;2.67;;;1.50;;
751;SDS011;360;48.764;9.164;2023-02-20T11:39:44;3.90;;;1.33;;
751;SDS011;360;48.764;9.164;2023-02-20T11:42:12;2.30;;;1.40;;
751;SDS011;360;48.764;9.164;2023-02-20T11:44:41;1.77;;;1.23;;
751;SDS011;360;48.764;9.164;2023-02-20T11:47:09;2.80;;;1.33;;
751;SDS011;360;48.764;9.164;2023-02-20T11:49:37;0.90;;;0.83;;
751;SDS011;360;48.764;9.164;2023-02-20T11:52:08;1.67;;;1.17;;
751;SDS011;360;48.764;9.164;2023-02-20T11:54:35;1.50;;;1.07;;
751;SDS011;360;48.764;9.164;2023-02-20T11:57:05;2.90;;;1.10;;
751;SDS011;360;48.764;9.164;2023-02-20T11:59:36;1.87;;;1.33;;
751;SDS011;360;48.764;9.164;2023-02-20T12:05:03;1.20;;;0.83;;
751;SDS011;360;48.764;9.164;2023-02-20T12:07:32;6.00;;;1.17;;
751;SDS011;360;48.764;9.164;2023-02-20T12:10:01;7.70;;;1.30;;
751;SDS011;360;48.764;9.164;2023-02-20T12:12:31;1.63;;;1.03;;
751;SDS011;360;48.764;9.164;2023-02-20T12:14:58;1.53;;;0.90;;
751;SDS011;360;48.764;9.164;2023-02-20T12:17:29;1.67;;;1.23;;
751;SDS011;360;48.764;9.164;2023-02-20T12:19:59;2.07;;;0.87;;
751;SDS011;360;48.764;9.164;2023-02-20T12:22:30;0.90;;;0.80;;
751;SDS011;360;48.764;9.164;2023-02-20T12:30:43;1.30;;;0.83;;
751;SDS011;360;48.764;9.164;2023-02-20T12:33:17;1.80;;;1.00;;
751;SDS011;360;48.764;9.164;2023-02-20T12:35:49;1.70;;;1.00;;
751;SDS011;360;48.764;9.164;2023-02-20T12:38:23;2.60;;;0.80;;
751;SDS011;360;48.764;9.164;2023-02-20T12:41:00;1.40;;;1.20;;
751;SDS011;360;48.764;9.164;2023-02-20T12:43:36;4.13;;;1.20;;
751;SDS011;360;48.764;9.164;2023-02-20T12:46:07;1.33;;;1.20;;
751;SDS011;360;48.764;9.164;2023-02-20T12:48:38;2.07;;;1.00;;
751;SDS011;360;48.764;9.164;2023-02-20T12:51:10;1.00;;;0.70;;
751;SDS011;360;48.764;9.164;2023-02-20T12:53:48;1.40;;;0.73;;
751;SDS011;360;48.764;9.164;2023-02-20T12:56:22;2.03;;;0.70;;
751;SDS011;360;48.764;9.164;2023-02-20T12:58:52;1.00;;;0.77;;
751;SDS011;360;48.764;9.164;2023-02-20T13:01:23;0.97;;;0.87;;
751;SDS011;360;48.764;9.164;2023-02-20T13:03:53;1.83;;;0.80;;
751;SDS011;360;48.764;9.164;2023-02-20T13:06:24;0.60;;;0.60;;
751;SDS011;360;48.764;9.164;2023-02-20T13:08:59;1.07;;;0.80;;
751;SDS011;360;48.764;9.164;2023-02-20T13:11:29;2.80;;;0.80;;
751;SDS011;360;48.764;9.164;2023-02-20T13:14:00;1.13;;;0.80;;
751;SDS011;360;48.764;9.164;2023-02-20T13:16:35;0.70;;;0.60;;
751;SDS011;360;48.764;9.164;2023-02-20T13:19:04;1.20;;;0.90;;
751;SDS011;360;48.764;9.164;2023-02-20T13:21:33;1.53;;;0.70;;
751;SDS011;360;48.764;9.164;2023-02-20T13:24:11;0.70;;;0.60;;
751;SDS011;360;48.764;9.164;2023-02-20T13:26:49;1.00;;;0.60;;
751;SDS011;360;48.764;9.164;2023-02-20T13:29:17;0.97;;;0.60;;
751;SDS011;360;48.764;9.164;2023-02-20T13:31:47;1.47;;;0.70;;
751;SDS011;360;48.764;9.164;2023-02-20T13:34:31;1.00;;;0.80;;
751;SDS011;360;48.764;9.164;2023-02-20T13:36:59;2.17;;;0.67;;
751;SDS011;360;48.764;9.164;2023-02-20T13:42:24;1.63;;;0.90;;
751;SDS011;360;48.764;9.164;2023-02-20T13:44:52;1.43;;;0.80;;
751;SDS011;360;48.764;9.164;2023-02-20T13:47:31;7.27;;;0.60;;
751;SDS011;360;48.764;9.164;2023-02-20T13:50:00;0.90;;;0.60;;
751;SDS011;360;48.764;9.164;2023-02-20T13:52:32;0.70;;;0.60;;
751;SDS011;360;48.764;9.164;2023-02-20T13:55:04;0.70;;;0.60;;
751;SDS011;360;48.764;9.164;2023-02-20T13:57:41;1.43;;;0.67;;
751;SDS011;360;48.764;9.164;2023-02-20T14:00:14;0.60;;;0.40;;
751;SDS011;360;48.764;9.164;2023-02-20T14:02:47;3.63;;;1.90;;
751;SDS011;360;48.764;9.164;2023-02-20T14:05:16;0.80;;;0.50;;
751;SDS011;360;48.764;9.164;2023-02-20T14:07:44;1.93;;;0.47;;
751;SDS011;360;48.764;9.164;2023-02-20T14:10:16;1.53;;;0.50;;
751;SDS011;360;48.764;9.164;2023-02-20T14:12:43;0.60;;;0.50;;
751;SDS011;360;48.764;9.164;2023-02-20T14:15:11;0.60;;;0.50;;
751;SDS011;360;48.764;9.164;2023-02-20T14:17:40;0.63;;;0.57;;
751;SDS011;360;48.764;9.164;2023-02-20T14:20:14;0.87;;;0.50;;
751;SDS011;360;48.764;9.164;2023-02-20T14:22:44;1.90;;;0.53;;
751;SDS011;360;48.764;9.164;2023-02-20T14:25:21;3.90;;;0.60;;
751;SDS011;360;48.764;9.164;2023-02-20T14:27:49;0.60;;;0.50;;
751;SDS011;360;48.764;9.164;2023-02-20T14:30:17;0.70;;;0.47;;
751;SDS011;360;48.764;9.164;2023-02-20T14:32:45;1.07;;;0.43;;
751;SDS011;360;48.764;9.164;2023-02-20T14:35:26;1.07;;;0.70;;
751;SDS011;360;48.764;9.164;2023-02-20T14:37:57;0.60;;;0.40;;
751;SDS011;360;48.764;9.164;2023-02-20T14:40:26;1.37;;;0.60;;
751;SDS011;360;48.764;9.164;2023-02-20T14:42:59;1.17;;;0.50;;
751;SDS011;360;48.764;9.164;2023-02-20T14:45:26;0.60;;;0.40;;
751;SDS011;360;48.764;9.164;2023-02-20T14:47:55;0.70;;;0.50;;
751;SDS011;360;48.764;9.164;2023-02-20T14:50:24;0.70;;;0.50;;
751;SDS011;360;48.764;9.164;2023-02-20T14:53:02;1.10;;;0.80;;
751;SDS011;360;48.764;9.164;2023-02-20T14:55:29;0.60;;;0.50;;
751;SDS011;360;48.764;9.164;2023-02-20T14:57:56;0.80;;;0.77;;
751;SDS011;360;48.764;9.164;2023-02-20T15:00:30;0.70;;;0.50;;
751;SDS011;360;48.764;9.164;2023-02-20T15:02:58;1.63;;;0.53;;
751;SDS011;360;48.764;9.164;2023-02-20T15:05:28;0.73;;;0.50;;
751;SDS011;360;48.764;9.164;2023-02-20T15:07:59;0.80;;;0.50;;
751;SDS011;360;48.764;9.164;2023-02-20T15:10:30;0.60;;;0.50;;
751;SDS011;360;48.764;9.164;2023-02-20T15:12:59;0.67;;;0.50;;
751;SDS011;360;48.764;9.164;2023-02-20T15:15:32;0.80;;;0.60;;
751;SDS011;360;48.764;9.164;2023-02-20T15:18:07;1.87;;;0.83;;
751;SDS011;360;48.764;9.164;2023-02-20T15:20:38;1.33;;;0.50;;
751;SDS011;360;48.764;9.164;2023-02-20T15:23:09;0.77;;;0.50;;
751;SDS011;360;48.764;9.164;2023-02-20T15:25:37;0.60;;;0.50;;
751;SDS011;360;48.764;9.164;2023-02-20T15:28:05;0.80;;;0.53;;
751;SDS011;360;48.764;9.164;2023-02-20T15:30:32;0.80;;;0.50;;
751;SDS011;360;48.764;9.164;2023-02-20T15:33:00;2.07;;;0.90;;
751;SDS011;360;48.764;9.164;2023-02-20T15:35:28;3.03;;;0.60;;
751;SDS011;360;48.764;9.164;2023-02-20T15:37:59;0.60;;;0.40;;
751;SDS011;360;48.764;9.164;2023-02-20T15:40:28;3.23;;;0.60;;
751;SDS011;360;48.764;9.164;2023-02-20T15:42:56;2.50;;;0.80;;
751;SDS011;360;48.764;9.164;2023-02-20T15:45:24;1.27;;;0.60;;
751;SDS011;360;48.764;9.164;2023-02-20T15:47:52;0.60;;;0.50;;
751;SDS011;360;48.764;9.164;2023-02-20T15:50:20;0.60;;;0.50;;
751;SDS011;360;48.764;9.164;2023-02-20T15:52:46;0.80;;;0.50;;
751;SDS011;360;48.764;9.164;2023-02-20T15:55:15;0.87;;;0.60;;
751;SDS011;360;48.764;9.164;2023-02-20T15:57:44;1.77;;;0.63;;
751;SDS011;360;48.764;9.164;2023-02-20T16:00:17;2.30;;;0.90;;
751;SDS011;360;48.764;9.164;2023-02-20T16:02:45;2.00;;;0.77;;
751;SDS011;360;48.764;9.164;2023-02-20T16:05:12;0.77;;;0.50;;
751;SDS011;360;48.764;9.164;2023-02-20T16:07:39;0.80;;;0.60;;
751;SDS011;360;48.764;9.164;2023-02-20T16:10:06;1.00;;;0.60;;
751;SDS011;360;48.764;9.164;2023-02-20T16:12:35;1.17;;;0.70;;
751;SDS011;360;48.764;9.164;2023-02-20T16:15:04;1.03;;;0.73;;
751;SDS011;360;48.764;9.164;2023-02-20T16:17:32;0.80;;;0.70;;
751;SDS011;360;48.764;9.164;2023-02-20T16:20:00;1.33;;;0.83;;
751;SDS011;360;48.764;9.164;2023-02-20T16:22:27;0.60;;;0.50;;